Terminal Aerodrome Forecast
Issued by NWS

Home | Current Version | Previous Version | Graphics & Text | Print | Product List | Glossary On
Versions: 1 2 3 4 5 6 7 8 9 10 11 12 13 14 15 16 17 18 19 20 21 22 23
000
FTUS43 KABR 282043 AAD
TAFATY
TAF AMD
KATY 282043Z 2821/2918 02008KT P6SM VCSH OVC050
     FM290000 33007KT P6SM BKN045
     FM290500 VRB04KT P6SM SCT070
     FM291400 28008KT P6SM SCT150=

USA.gov is the U.S. government's official web portal to all federal, state and local government web resources and services.